< Typhoon 199906 1999 Season Typhoon 199908 >
Typhoon 199907 (OLGA)
General InformationTrack Information on Google MapsDetailed Wind InformationList of All Images || NewsDisaster Info.ResourceGoogle EarthGE AnimationAtom FeedGeoJSON
Detalied Best Track (Time Zone = UTC)
Year Month Day Hour Lat. Long. Pressure (hPa) Wind (kt) Class Image Chart
1999 7 29 00 12.3 134.5 1000 0 2 Image Chart
1999 7 29 06 13.8 134.0 1000 0 2 Image Chart
1999 7 29 12 14.6 133.6 1000 0 2 Image Chart
1999 7 29 18 15.4 133.4 998 0 2 Image Chart
1999 7 30 00 16.7 133.6 996 35 3 Image Chart
1999 7 30 06 18.7 133.6 994 35 3 Image Chart
1999 7 30 12 20.2 132.6 990 40 3 Image Chart
1999 7 30 18 20.9 131.8 985 50 4 Image Chart
1999 7 31 00 21.7 131.2 985 50 4 Image Chart
1999 7 31 06 22.7 130.7 985 50 4 Image Chart
1999 7 31 12 23.2 130.5 985 50 4 Image Chart
1999 7 31 15 23.4 130.2 985 50 4 Image Chart
1999 7 31 18 23.8 130.0 980 55 4 Image Chart
1999 7 31 21 24.4 129.7 980 55 4 Image Chart
1999 8 1 00 24.9 129.4 980 55 4 Image Chart
1999 8 1 03 25.3 129.1 980 55 4 Image Chart
1999 8 1 06 25.5 129.0 975 60 4 Image Chart
1999 8 1 09 25.8 128.7 975 60 4 Image Chart
1999 8 1 12 26.3 128.1 970 65 5 Image Chart
1999 8 1 15 26.8 127.5 970 65 5 Image Chart
1999 8 1 18 27.2 127.1 975 60 4 Image Chart
1999 8 1 21 27.4 126.8 975 60 4 Image Chart
1999 8 2 00 27.7 126.6 975 60 4 Image Chart
1999 8 2 03 28.3 126.4 970 60 4 Image Chart
1999 8 2 06 28.7 126.3 975 60 4 Image Chart
1999 8 2 12 30.1 126.1 975 60 4 Image Chart
1999 8 2 18 31.5 125.9 975 60 4 Image Chart
1999 8 3 00 33.5 125.9 975 60 4 Image Chart
1999 8 3 06 34.9 125.9 975 55 4 Image Chart
1999 8 3 12 37.4 126.4 985 50 4 Image Chart
1999 8 3 18 40.6 126.4 990 0 6 Image Chart
1999 8 4 00 43.6 126.5 996 0 6 Image Chart
1999 8 4 06 45.1 126.8 998 0 6 Image Chart
1999 8 4 12 46.7 127.2 1000 0 6 Image Chart
1999 8 4 18 48.3 128.1 1000 0 6 Image Chart
1999 8 5 00 49.7 129.8 1000 0 6 Image Chart
1999 8 5 06 50.9 131.1 996 0 6 Image Chart
Japan Meteorological Agency Best Track Data | Correction Date : 2005-03-01
< Typhoon 199906 1999 Season Typhoon 199908 >

Help